Golden Blaze — SVAG6 — position and weather

sailwx.info

Track history (hours):
 
Tides and Currents Weather Stations Pressure Air Temp Water Temp Dewpoint Dewpoint Depression Visibility Wind Speed Wind Dir Waves Ship Positions

Golden Blaze

Last reported at 2014-Sep-01 16:25 UTC. Time now 2014-Sep-02 02:15 UTC.
Position N 35°45' E 025°14'.

Length 74 m; draft 3 m.

Type: Ship. MMSI: 241148000.

Date/timePositionNaut miles runAvg speedWind from/ knotsBaromVisibWave heightAir tempDewpointWater temp
2014-Sep-01 16:25N 35°45' E 025°14'2427.7
2014-Sep-01 15:34N 36°08' E 025°19'1616.3
2014-Sep-01 14:33N 36°23' E 025°26'0 0.0
2014-Sep-01 13:33N 36°23' E 025°26'0 0.0
2014-Sep-01 12:33N 36°23' E 025°26'0 0.0
2014-Sep-01 11:33N 36°23' E 025°26'0 0.0
2014-Sep-01 10:33N 36°23' E 025°26'0 0.0
2014-Sep-01 09:33N 36°23' E 025°26'0 0.0
2014-Sep-01 08:33N 36°23' E 025°26'1615.6
2014-Sep-01 07:33N 36°09' E 025°18'2625.4
2014-Sep-01 06:32N 35°43' E 025°13'6 0.4
2014-Aug-31 16:29N 35°49' E 025°14'2426.3
2014-Aug-31 15:34N 36°13' E 025°19'1111.4
2014-Aug-31 14:33N 36°23' E 025°26'0 0.0
2014-Aug-31 13:31N 36°23' E 025°26'39 0.9
2014-Aug-29 16:32N 35°46' E 025°13'2626.5
2014-Aug-29 15:34N 36°12' E 025°19'1312.7
2014-Aug-29 14:32N 36°23' E 025°26'0 0.0
2014-Aug-29 13:33N 36°23' E 025°26'0 0.0
2014-Aug-29 12:33N 36°23' E 025°26'0 0.0
2014-Aug-29 11:33N 36°23' E 025°26'0 0.0
2014-Aug-29 10:33N 36°23' E 025°26'0 0.0
2014-Aug-29 09:34N 36°23' E 025°26'0 0.0
2014-Aug-29 08:34N 36°23' E 025°26'1817.7
2014-Aug-29 07:33N 36°07' E 025°18'2525.3
2014-Aug-29 06:33N 35°42' E 025°13'21 4.3
2014-Aug-29 01:32N 35°21' E 025°08'0 0.0
2014-Aug-28 23:21N 35°21' E 025°08'26 3.9
2014-Aug-28 16:33N 35°47' E 025°14'2727.2
2014-Aug-28 15:33N 36°13' E 025°19'1111.2
2014-Aug-28 14:33N 36°23' E 025°26'2 0.4
2014-Aug-28 08:33N 36°23' E 025°23'1413.5
2014-Aug-28 07:33N 36°10' E 025°18'2626.3
2014-Aug-28 06:33N 35°44' E 025°13'2423.1
2014-Aug-28 05:32N 35°21' E 025°08'0 0.0
2014-Aug-28 04:33N 35°21' E 025°08'0 0.0
2014-Aug-28 03:30N 35°21' E 025°08'0 0.0
2014-Aug-28 02:33N 35°21' E 025°08'0 0.0
2014-Aug-27 22:31N 35°21' E 025°08'0 0.0
2014-Aug-27 21:33N 35°21' E 025°08'0 0.0
2014-Aug-27 20:33N 35°21' E 025°08'0 0.0
2014-Aug-27 19:33N 35°21' E 025°08'0 0.0
2014-Aug-27 18:33N 35°21' E 025°08'1 0.5
2014-Aug-27 17:33N 35°21' E 025°09'2726.0
2014-Aug-27 16:30N 35°48' E 025°15'2627.1
2014-Aug-27 15:33N 36°13' E 025°19'1111.2
2014-Aug-27 14:33N 36°23' E 025°26'64 1.7
2014-Aug-26 01:09N 35°21' E 025°08'0 0.0
2014-Aug-26 00:22N 35°21' E 025°08'0 0.0
2014-Aug-25 23:06N 35°21' E 025°08'0 0.0
2014-Aug-25 22:32N 35°21' E 025°08'0 0.0
2014-Aug-25 21:30N 35°21' E 025°08'0 0.0
2014-Aug-25 20:14N 35°21' E 025°08'0 0.0
2014-Aug-25 19:33N 35°21' E 025°08'11 4.6
2014-Aug-25 17:14N 35°31' E 025°11'1827.0
2014-Aug-25 16:33N 35°49' E 025°15'2727.2
2014-Aug-25 15:33N 36°16' E 025°20'9 6.4
2014-Aug-25 14:12N 36°23' E 025°26'0 0.0
2014-Aug-25 13:32N 36°23' E 025°26'0 0.0
2014-Aug-25 11:33N 36°23' E 025°26'0 0.0
2014-Aug-25 10:33N 36°23' E 025°26'0 0.2
2014-Aug-25 09:33N 36°23' E 025°26'0 0.1
2014-Aug-25 08:33N 36°23' E 025°26'1818.4
2014-Aug-25 07:34N 36°06' E 025°17'2626.0
2014-Aug-25 06:33N 35°41' E 025°12'2019.6
2014-Aug-25 05:31N 35°21' E 025°08'0 0.0
2014-Aug-25 04:30N 35°21' E 025°08'0 0.0
2014-Aug-24 21:07N 35°21' E 025°08'0 0.0
2014-Aug-24 19:30N 35°21' E 025°08'0 0.0
2014-Aug-24 17:34N 35°21' E 025°08'2523.3
2014-Aug-24 16:28N 35°46' E 025°14'2527.3
2014-Aug-24 15:33N 36°10' E 025°18'1413.5
2014-Aug-24 14:30N 36°23' E 025°26'0 0.0
2014-Aug-24 13:33N 36°23' E 025°26'0 0.0
2014-Aug-24 12:33N 36°23' E 025°26'0 0.0
2014-Aug-24 11:31N 36°23' E 025°26'0 0.0
2014-Aug-24 10:32N 36°23' E 025°26'0 0.2
2014-Aug-24 09:33N 36°23' E 025°26'0 0.2
2014-Aug-24 08:33N 36°23' E 025°26'1919.3
2014-Aug-24 07:34N 36°06' E 025°16'2625.6
2014-Aug-24 06:33N 35°41' E 025°08'2019.5
2014-Aug-24 05:31N 35°21' E 025°08'0 0.0
2014-Aug-24 04:28N 35°21' E 025°08'0 0.0
2014-Aug-24 03:33N 35°21' E 025°08'0 0.0
2014-Aug-24 02:21N 35°21' E 025°08'0 0.0
2014-Aug-24 00:33N 35°21' E 025°08'0 0.0
2014-Aug-23 21:33N 35°21' E 025°08'0 0.0
2014-Aug-23 20:33N 35°21' E 025°08'0 0.1
2014-Aug-23 19:33N 35°21' E 025°08'0 0.0
2014-Aug-23 02:15N 35°21' E 025°08'0 0.2
2014-Aug-23 01:33N 35°21' E 025°08'0 0.0
2014-Aug-22 23:33N 35°21' E 025°08'0 0.0
2014-Aug-22 21:32N 35°21' E 025°08'0 0.0
2014-Aug-22 20:29N 35°21' E 025°08'0 0.0
2014-Aug-22 19:33N 35°21' E 025°08'0 0.2
2014-Aug-22 17:31N 35°21' E 025°09'2425.3
2014-Aug-22 16:33N 35°45' E 025°14'  
Track history (hours):
 
Tides and Currents Weather Stations Pressure Air Temp Water Temp Dewpoint Dewpoint Depression Visibility Wind Speed Wind Dir Waves Ship Positions

Golden Blaze

Last reported at 2014-Sep-01 16:25 UTC. Time now 2014-Sep-02 02:15 UTC.
Position N 35°45' E 025°14'.

Length 74 m; draft 3 m.

Type: Ship. MMSI: 241148000.

Date/timePositionNaut miles runAvg speedWind from/ knotsBaromVisibWave heightAir tempDewpointWater temp
2014-Sep-01 16:25N 35°45' E 025°14'2427.7
2014-Sep-01 15:34N 36°08' E 025°19'1616.3
2014-Sep-01 14:33N 36°23' E 025°26'0 0.0
2014-Sep-01 13:33N 36°23' E 025°26'0 0.0
2014-Sep-01 12:33N 36°23' E 025°26'0 0.0
2014-Sep-01 11:33N 36°23' E 025°26'0 0.0
2014-Sep-01 10:33N 36°23' E 025°26'0 0.0
2014-Sep-01 09:33N 36°23' E 025°26'0 0.0
2014-Sep-01 08:33N 36°23' E 025°26'1615.6
2014-Sep-01 07:33N 36°09' E 025°18'2625.4
2014-Sep-01 06:32N 35°43' E 025°13'6 0.4
2014-Aug-31 16:29N 35°49' E 025°14'2426.3
2014-Aug-31 15:34N 36°13' E 025°19'1111.4
2014-Aug-31 14:33N 36°23' E 025°26'0 0.0
2014-Aug-31 13:31N 36°23' E 025°26'39 0.9
2014-Aug-29 16:32N 35°46' E 025°13'2626.5
2014-Aug-29 15:34N 36°12' E 025°19'1312.7
2014-Aug-29 14:32N 36°23' E 025°26'0 0.0
2014-Aug-29 13:33N 36°23' E 025°26'0 0.0
2014-Aug-29 12:33N 36°23' E 025°26'0 0.0
2014-Aug-29 11:33N 36°23' E 025°26'0 0.0
2014-Aug-29 10:33N 36°23' E 025°26'0 0.0
2014-Aug-29 09:34N 36°23' E 025°26'0 0.0
2014-Aug-29 08:34N 36°23' E 025°26'1817.7
2014-Aug-29 07:33N 36°07' E 025°18'2525.3
2014-Aug-29 06:33N 35°42' E 025°13'21 4.3
2014-Aug-29 01:32N 35°21' E 025°08'0 0.0
2014-Aug-28 23:21N 35°21' E 025°08'26 3.9
2014-Aug-28 16:33N 35°47' E 025°14'2727.2
2014-Aug-28 15:33N 36°13' E 025°19'1111.2
2014-Aug-28 14:33N 36°23' E 025°26'2 0.4
2014-Aug-28 08:33N 36°23' E 025°23'1413.5
2014-Aug-28 07:33N 36°10' E 025°18'2626.3
2014-Aug-28 06:33N 35°44' E 025°13'2423.1
2014-Aug-28 05:32N 35°21' E 025°08'0 0.0
2014-Aug-28 04:33N 35°21' E 025°08'0 0.0
2014-Aug-28 03:30N 35°21' E 025°08'0 0.0
2014-Aug-28 02:33N 35°21' E 025°08'0 0.0
2014-Aug-27 22:31N 35°21' E 025°08'0 0.0
2014-Aug-27 21:33N 35°21' E 025°08'0 0.0
2014-Aug-27 20:33N 35°21' E 025°08'0 0.0
2014-Aug-27 19:33N 35°21' E 025°08'0 0.0
2014-Aug-27 18:33N 35°21' E 025°08'1 0.5
2014-Aug-27 17:33N 35°21' E 025°09'2726.0
2014-Aug-27 16:30N 35°48' E 025°15'2627.1
2014-Aug-27 15:33N 36°13' E 025°19'1111.2
2014-Aug-27 14:33N 36°23' E 025°26'64 1.7
2014-Aug-26 01:09N 35°21' E 025°08'0 0.0
2014-Aug-26 00:22N 35°21' E 025°08'0 0.0
2014-Aug-25 23:06N 35°21' E 025°08'0 0.0
2014-Aug-25 22:32N 35°21' E 025°08'0 0.0
2014-Aug-25 21:30N 35°21' E 025°08'0 0.0
2014-Aug-25 20:14N 35°21' E 025°08'0 0.0
2014-Aug-25 19:33N 35°21' E 025°08'11 4.6
2014-Aug-25 17:14N 35°31' E 025°11'1827.0
2014-Aug-25 16:33N 35°49' E 025°15'2727.2
2014-Aug-25 15:33N 36°16' E 025°20'9 6.4
2014-Aug-25 14:12N 36°23' E 025°26'0 0.0
2014-Aug-25 13:32N 36°23' E 025°26'0 0.0
2014-Aug-25 11:33N 36°23' E 025°26'0 0.0
2014-Aug-25 10:33N 36°23' E 025°26'0 0.2
2014-Aug-25 09:33N 36°23' E 025°26'0 0.1
2014-Aug-25 08:33N 36°23' E 025°26'1818.4
2014-Aug-25 07:34N 36°06' E 025°17'2626.0
2014-Aug-25 06:33N 35°41' E 025°12'2019.6
2014-Aug-25 05:31N 35°21' E 025°08'0 0.0
2014-Aug-25 04:30N 35°21' E 025°08'0 0.0
2014-Aug-24 21:07N 35°21' E 025°08'0 0.0
2014-Aug-24 19:30N 35°21' E 025°08'0 0.0
2014-Aug-24 17:34N 35°21' E 025°08'2523.3
2014-Aug-24 16:28N 35°46' E 025°14'2527.3
2014-Aug-24 15:33N 36°10' E 025°18'1413.5
2014-Aug-24 14:30N 36°23' E 025°26'0 0.0
2014-Aug-24 13:33N 36°23' E 025°26'0 0.0
2014-Aug-24 12:33N 36°23' E 025°26'0 0.0
2014-Aug-24 11:31N 36°23' E 025°26'0 0.0
2014-Aug-24 10:32N 36°23' E 025°26'0 0.2
2014-Aug-24 09:33N 36°23' E 025°26'0 0.2
2014-Aug-24 08:33N 36°23' E 025°26'1919.3
2014-Aug-24 07:34N 36°06' E 025°16'2625.6
2014-Aug-24 06:33N 35°41' E 025°08'2019.5
2014-Aug-24 05:31N 35°21' E 025°08'0 0.0
2014-Aug-24 04:28N 35°21' E 025°08'0 0.0
2014-Aug-24 03:33N 35°21' E 025°08'0 0.0
2014-Aug-24 02:21N 35°21' E 025°08'0 0.0
2014-Aug-24 00:33N 35°21' E 025°08'0 0.0
2014-Aug-23 21:33N 35°21' E 025°08'0 0.0
2014-Aug-23 20:33N 35°21' E 025°08'0 0.1
2014-Aug-23 19:33N 35°21' E 025°08'0 0.0
2014-Aug-23 02:15N 35°21' E 025°08'0 0.2
2014-Aug-23 01:33N 35°21' E 025°08'0 0.0
2014-Aug-22 23:33N 35°21' E 025°08'0 0.0
2014-Aug-22 21:32N 35°21' E 025°08'0 0.0
2014-Aug-22 20:29N 35°21' E 025°08'0 0.0
2014-Aug-22 19:33N 35°21' E 025°08'0 0.2
2014-Aug-22 17:31N 35°21' E 025°09'2425.3
2014-Aug-22 16:33N 35°45' E 025°14'  

Dump ship's entire track history